Time;durP1;ratioP1;P1;durP2;ratioP2;P2;SDS_P1;SDS_P2;PMS_P1;PMS_P2;Temp;Humidity;BMP_temperature;BMP_pressure;BME280_temperature;BME280_humidity;BME280_pressure;Samples;Min_cycle;Max_cycle;Signal;HPM_P1;HPM_P2
2021/11/26 00:01:01;;;;;;;19.60;10.25;;;;;;;;;;5042964;28;20665;-67
2021/11/26 00:03:29;;;;;;;15.85;9.35;;;;;;;;;;5048070;28;20842;-66
2021/11/26 00:05:59;;;;;;;16.80;8.35;;;;;;;;;;5035644;28;20365;-66
2021/11/26 00:08:27;;;;;;;17.70;10.25;;;;;;;;;;5050449;28;20226;-66
2021/11/26 00:11:11;;;;;;;21.02;9.75;;;;;;;;;;5045914;28;20234;-66
2021/11/26 00:13:40;;;;;;;14.85;8.23;;;;;;;;;;5033408;28;20222;-66
2021/11/26 00:16:15;;;;;;;20.55;9.65;;;;;;;;;;5045487;28;20226;-67
2021/11/26 00:18:44;;;;;;;17.55;9.40;;;;;;;;;;5039586;28;20229;-67
2021/11/26 00:21:12;;;;;;;21.52;10.13;;;;;;;;;;5018140;28;20199;-65
2021/11/26 00:23:39;;;;;;;16.42;9.00;;;;;;;;;;5057749;28;20218;-66
2021/11/26 00:26:10;;;;;;;20.20;11.10;;;;;;;;;;5047620;28;20215;-65
2021/11/26 00:28:38;;;;;;;16.80;8.82;;;;;;;;;;5051777;28;20659;-64
2021/11/26 00:31:05;;;;;;;21.30;11.13;;;;;;;;;;5050975;28;20626;-65
2021/11/26 00:33:34;;;;;;;23.10;10.30;;;;;;;;;;5050890;28;20252;-64
2021/11/26 00:36:02;;;;;;;17.95;9.30;;;;;;;;;;5051813;28;20261;-65
2021/11/26 00:38:30;;;;;;;18.80;9.82;;;;;;;;;;5050212;28;20201;-65
2021/11/26 00:40:57;;;;;;;24.25;11.15;;;;;;;;;;5050974;28;20233;-66
2021/11/26 00:43:25;;;;;;;19.67;10.88;;;;;;;;;;5051503;28;20222;-65
2021/11/26 00:45:53;;;;;;;21.77;10.40;;;;;;;;;;5051042;28;20827;-66
2021/11/26 00:48:20;;;;;;;24.15;11.40;;;;;;;;;;5051222;28;20227;-66
2021/11/26 00:50:49;;;;;;;20.48;10.10;;;;;;;;;;5054797;28;20189;-65
2021/11/26 00:53:17;;;;;;;19.33;11.40;;;;;;;;;;5055481;28;20277;-65
2021/11/26 00:55:47;;;;;;;17.58;9.18;;;;;;;;;;5055126;28;20676;-64
2021/11/26 00:58:15;;;;;;;17.85;9.38;;;;;;;;;;5055388;28;20216;-66
2021/11/26 01:00:42;;;;;;;18.00;10.13;;;;;;;;;;5055365;28;20193;-65
2021/11/26 01:03:09;;;;;;;24.75;12.15;;;;;;;;;;5054888;28;20545;-65
2021/11/26 01:05:37;;;;;;;22.67;10.63;;;;;;;;;;5054586;28;20187;-65
2021/11/26 01:08:06;;;;;;;24.77;13.05;;;;;;;;;;5055231;28;20341;-66
2021/11/26 01:10:34;;;;;;;20.13;10.43;;;;;;;;;;5054848;28;20611;-65
2021/11/26 01:13:02;;;;;;;27.35;12.00;;;;;;;;;;5054955;28;20241;-65
2021/11/26 01:15:32;;;;;;;18.05;10.77;;;;;;;;;;5054719;28;20265;-65
2021/11/26 01:18:00;;;;;;;23.25;11.27;;;;;;;;;;5054418;28;20187;-65
2021/11/26 01:20:29;;;;;;;24.80;12.77;;;;;;;;;;5054519;28;20213;-65
2021/11/26 01:22:57;;;;;;;26.55;12.85;;;;;;;;;;5054409;28;20186;-65
2021/11/26 01:25:26;;;;;;;24.88;12.77;;;;;;;;;;5054420;28;20206;-65
2021/11/26 01:27:54;;;;;;;21.40;11.90;;;;;;;;;;5054649;28;20199;-66
2021/11/26 01:30:25;;;;;;;26.52;13.63;;;;;;;;;;5054397;28;20566;-66
2021/11/26 01:32:54;;;;;;;24.05;13.52;;;;;;;;;;5054577;28;20202;-66
2021/11/26 01:35:21;;;;;;;27.85;13.40;;;;;;;;;;5035244;28;20286;-65
2021/11/26 01:37:49;;;;;;;21.88;12.35;;;;;;;;;;5034891;28;20221;-66
2021/11/26 01:40:17;;;;;;;24.38;11.43;;;;;;;;;;5053521;28;20187;-65
2021/11/26 01:42:47;;;;;;;19.35;11.43;;;;;;;;;;5054999;28;20245;-65
2021/11/26 01:45:15;;;;;;;25.75;11.88;;;;;;;;;;5053926;28;20186;-65
2021/11/26 01:47:42;;;;;;;20.67;11.18;;;;;;;;;;5053851;28;20194;-66
2021/11/26 01:50:11;;;;;;;25.38;11.90;;;;;;;;;;5054166;28;20257;-64
2021/11/26 01:52:39;;;;;;;23.95;11.68;;;;;;;;;;5054159;28;20692;-66
2021/11/26 01:55:09;;;;;;;23.73;11.38;;;;;;;;;;5054017;28;20260;-65
2021/11/26 01:57:37;;;;;;;22.27;10.20;;;;;;;;;;5053457;28;20187;-65
2021/11/26 02:00:08;;;;;;;21.33;10.55;;;;;;;;;;5051694;28;20202;-64
2021/11/26 02:02:36;;;;;;;23.15;11.25;;;;;;;;;;5054201;28;20191;-65
2021/11/26 02:05:03;;;;;;;24.17;11.82;;;;;;;;;;5053432;28;20347;-65
2021/11/26 02:07:31;;;;;;;19.38;10.55;;;;;;;;;;5053702;28;20195;-65
2021/11/26 02:09:58;;;;;;;23.65;11.15;;;;;;;;;;5053800;28;20199;-64
2021/11/26 02:12:27;;;;;;;24.92;12.73;;;;;;;;;;5053735;28;20198;-65
2021/11/26 02:14:58;;;;;;;20.00;10.07;;;;;;;;;;5054030;28;20226;-68
2021/11/26 02:17:27;;;;;;;25.85;10.93;;;;;;;;;;5053912;28;20505;-64
2021/11/26 02:20:04;;;;;;;16.15;9.65;;;;;;;;;;5054513;28;20202;-64
2021/11/26 02:22:32;;;;;;;19.48;10.40;;;;;;;;;;5052929;28;20273;-65
2021/11/26 02:24:59;;;;;;;18.38;10.82;;;;;;;;;;5054159;28;20214;-65
2021/11/26 02:27:27;;;;;;;21.48;10.48;;;;;;;;;;5053664;28;20191;-65
2021/11/26 02:29:56;;;;;;;18.83;9.75;;;;;;;;;;5053132;28;20187;-65
2021/11/26 02:32:26;;;;;;;20.73;10.73;;;;;;;;;;5053872;28;20249;-64
2021/11/26 02:34:54;;;;;;;20.65;9.80;;;;;;;;;;5052927;28;20191;-64
2021/11/26 02:37:23;;;;;;;24.52;10.68;;;;;;;;;;5053878;28;20289;-64
2021/11/26 02:39:50;;;;;;;18.42;10.43;;;;;;;;;;5053020;28;20207;-64
2021/11/26 02:42:24;;;;;;;17.45;8.48;;;;;;;;;;5053636;28;20274;-66
2021/11/26 02:44:52;;;;;;;23.10;10.13;;;;;;;;;;5052550;28;20252;-65
2021/11/26 02:47:19;;;;;;;18.58;11.00;;;;;;;;;;5052611;28;20186;-66
2021/11/26 02:49:47;;;;;;;21.67;9.75;;;;;;;;;;5052935;28;20187;-65
2021/11/26 02:52:16;;;;;;;20.40;10.60;;;;;;;;;;5053367;28;20195;-66
2021/11/26 02:54:45;;;;;;;18.10;10.02;;;;;;;;;;5052459;28;20903;-65
2021/11/26 02:57:12;;;;;;;23.65;12.68;;;;;;;;;;5053194;28;20278;-65
2021/11/26 02:59:40;;;;;;;18.90;9.93;;;;;;;;;;5053077;28;20198;-65
2021/11/26 03:02:07;;;;;;;20.08;10.25;;;;;;;;;;5053414;28;20198;-64
2021/11/26 03:04:35;;;;;;;25.55;10.50;;;;;;;;;;5052455;28;20229;-65
2021/11/26 03:07:03;;;;;;;18.63;10.25;;;;;;;;;;5053231;28;20662;-65
2021/11/26 03:09:31;;;;;;;22.90;10.55;;;;;;;;;;5053330;28;20203;-65
2021/11/26 03:12:00;;;;;;;21.83;11.98;;;;;;;;;;5051690;28;20244;-65
2021/11/26 03:14:28;;;;;;;19.00;9.93;;;;;;;;;;5052844;28;20527;-66
2021/11/26 03:16:55;;;;;;;18.05;9.68;;;;;;;;;;5052300;28;20248;-66
2021/11/26 03:19:23;;;;;;;18.45;10.63;;;;;;;;;;5052894;28;20646;-64
2021/11/26 03:21:50;;;;;;;20.00;10.18;;;;;;;;;;5052049;28;20182;-65
2021/11/26 03:24:18;;;;;;;22.98;10.48;;;;;;;;;;5051771;28;20218;-65
2021/11/26 03:26:45;;;;;;;27.23;12.25;;;;;;;;;;5052400;28;20204;-65
2021/11/26 03:29:14;;;;;;;18.70;9.73;;;;;;;;;;5052112;28;20649;-65
2021/11/26 03:31:42;;;;;;;17.38;10.13;;;;;;;;;;5051882;28;20195;-66
2021/11/26 03:34:10;;;;;;;25.27;12.15;;;;;;;;;;5051409;28;20202;-64
2021/11/26 03:36:41;;;;;;;23.80;12.45;;;;;;;;;;5052017;28;20674;-65
2021/11/26 03:39:08;;;;;;;20.92;11.75;;;;;;;;;;5052078;28;20190;-64
2021/11/26 03:41:36;;;;;;;24.63;12.88;;;;;;;;;;5051939;28;20198;-66
2021/11/26 03:44:03;;;;;;;25.08;11.13;;;;;;;;;;5051514;28;20210;-67
2021/11/26 03:46:35;;;;;;;24.90;12.68;;;;;;;;;;5052079;28;20613;-65
2021/11/26 03:49:02;;;;;;;24.08;12.40;;;;;;;;;;5051230;28;20221;-65
2021/11/26 03:51:30;;;;;;;25.88;10.90;;;;;;;;;;5051683;28;20251;-65
2021/11/26 03:53:59;;;;;;;33.08;14.32;;;;;;;;;;5052519;28;20198;-65
2021/11/26 03:56:26;;;;;;;23.00;12.63;;;;;;;;;;5051968;28;20214;-65
2021/11/26 03:58:54;;;;;;;21.80;10.68;;;;;;;;;;5052001;28;20336;-65
2021/11/26 04:01:22;;;;;;;22.13;11.75;;;;;;;;;;5051716;28;20195;-65
2021/11/26 04:03:51;;;;;;;17.58;10.23;;;;;;;;;;5052717;28;20246;-65
2021/11/26 04:06:18;;;;;;;19.90;11.15;;;;;;;;;;5051165;28;20211;-65
2021/11/26 04:08:46;;;;;;;22.98;12.00;;;;;;;;;;5051511;28;20183;-66
2021/11/26 04:11:13;;;;;;;23.23;11.80;;;;;;;;;;5051952;28;20234;-67
2021/11/26 04:13:41;;;;;;;24.77;12.60;;;;;;;;;;5051717;28;20219;-66
2021/11/26 04:16:13;;;;;;;23.48;11.88;;;;;;;;;;5052165;28;20543;-66
2021/11/26 04:18:40;;;;;;;27.27;12.98;;;;;;;;;;5050937;28;20222;-66
2021/11/26 04:21:09;;;;;;;21.40;11.15;;;;;;;;;;5051826;28;20559;-66
2021/11/26 04:23:38;;;;;;;24.92;11.30;;;;;;;;;;5050341;28;20201;-65
2021/11/26 04:26:05;;;;;;;24.45;13.38;;;;;;;;;;5051628;28;20614;-65
2021/11/26 04:28:33;;;;;;;31.05;14.55;;;;;;;;;;5052000;28;20194;-65
2021/11/26 04:31:01;;;;;;;24.88;12.93;;;;;;;;;;5051559;28;20221;-66
2021/11/26 04:33:30;;;;;;;27.60;11.63;;;;;;;;;;5051164;28;20270;-65
2021/11/26 04:35:59;;;;;;;26.50;12.63;;;;;;;;;;5051897;28;20191;-64
2021/11/26 04:38:29;;;;;;;27.92;12.73;;;;;;;;;;5051206;28;20274;-64
2021/11/26 04:40:56;;;;;;;28.27;14.40;;;;;;;;;;5051730;28;20244;-66
2021/11/26 04:43:24;;;;;;;23.90;11.30;;;;;;;;;;5051860;28;20654;-66
2021/11/26 04:45:51;;;;;;;24.30;10.43;;;;;;;;;;5051619;28;20226;-65
2021/11/26 04:48:19;;;;;;;25.33;12.80;;;;;;;;;;5051911;28;20199;-66
2021/11/26 04:50:47;;;;;;;24.88;12.35;;;;;;;;;;5051766;28;20186;-66
2021/11/26 04:53:15;;;;;;;25.10;12.13;;;;;;;;;;5051852;28;20201;-65
2021/11/26 04:55:44;;;;;;;27.10;13.70;;;;;;;;;;5050941;28;20193;-65
2021/11/26 04:58:11;;;;;;;25.92;11.23;;;;;;;;;;5050704;28;20215;-64
2021/11/26 05:00:39;;;;;;;23.73;11.20;;;;;;;;;;5051696;28;20593;-64
2021/11/26 05:03:07;;;;;;;26.52;14.15;;;;;;;;;;5051545;28;20194;-65
2021/11/26 05:05:34;;;;;;;24.15;12.50;;;;;;;;;;5050825;28;20254;-66
2021/11/26 05:08:02;;;;;;;22.00;13.18;;;;;;;;;;5051313;28;20187;-65
2021/11/26 05:10:31;;;;;;;28.95;14.25;;;;;;;;;;5051110;28;20241;-65
2021/11/26 05:13:02;;;;;;;29.42;13.93;;;;;;;;;;5051466;28;20210;-66
2021/11/26 05:15:30;;;;;;;31.40;13.82;;;;;;;;;;5050481;28;20280;-65
2021/11/26 05:17:59;;;;;;;25.60;15.27;;;;;;;;;;5050736;28;20202;-65
2021/11/26 05:20:27;;;;;;;32.38;14.95;;;;;;;;;;5050223;28;20240;-65
2021/11/26 05:22:55;;;;;;;32.95;13.68;;;;;;;;;;5050949;28;20191;-64
2021/11/26 05:25:23;;;;;;;32.53;14.25;;;;;;;;;;5051067;28;20309;-65
2021/11/26 05:27:50;;;;;;;33.40;14.00;;;;;;;;;;5051827;28;20213;-64
2021/11/26 05:30:20;;;;;;;27.35;15.32;;;;;;;;;;5031787;28;20283;-64
2021/11/26 05:32:49;;;;;;;28.33;13.57;;;;;;;;;;5031535;28;20195;-66
2021/11/26 05:35:17;;;;;;;31.83;15.10;;;;;;;;;;5053313;28;20182;-66
2021/11/26 05:37:45;;;;;;;25.77;14.40;;;;;;;;;;5055304;28;20223;-65
2021/11/26 05:40:14;;;;;;;40.92;15.98;;;;;;;;;;5054738;28;20218;-65
2021/11/26 05:42:42;;;;;;;35.10;15.50;;;;;;;;;;5054921;28;20278;-65
2021/11/26 05:45:10;;;;;;;34.53;15.90;;;;;;;;;;5054683;28;20214;-65
2021/11/26 05:47:40;;;;;;;42.55;15.88;;;;;;;;;;5055218;28;20252;-65
2021/11/26 05:50:08;;;;;;;40.17;16.02;;;;;;;;;;5054291;28;20187;-65
2021/11/26 05:52:36;;;;;;;42.22;16.85;;;;;;;;;;5055142;28;20230;-65
2021/11/26 05:55:07;;;;;;;38.58;17.13;;;;;;;;;;5054696;28;20202;-65
2021/11/26 05:57:35;;;;;;;38.30;17.90;;;;;;;;;;5054819;28;20502;-66
2021/11/26 06:00:03;;;;;;;41.15;17.70;;;;;;;;;;5054429;28;20202;-65
2021/11/26 06:02:30;;;;;;;33.22;16.10;;;;;;;;;;5055090;28;20191;-65
2021/11/26 06:04:59;;;;;;;36.88;16.40;;;;;;;;;;5053375;28;20225;-69
2021/11/26 06:07:29;;;;;;;37.15;17.60;;;;;;;;;;5051587;28;20187;-66
2021/11/26 06:09:56;;;;;;;38.17;17.10;;;;;;;;;;5053987;28;20206;-65
2021/11/26 06:12:24;;;;;;;37.83;16.85;;;;;;;;;;5053157;28;20237;-67
2021/11/26 06:14:54;;;;;;;31.65;15.07;;;;;;;;;;5053802;28;20215;-64
2021/11/26 06:17:21;;;;;;;33.20;17.52;;;;;;;;;;5053392;28;20205;-65
2021/11/26 06:19:49;;;;;;;37.97;16.70;;;;;;;;;;5053409;28;20207;-65
2021/11/26 06:22:17;;;;;;;36.05;16.60;;;;;;;;;;5053205;28;20602;-64
2021/11/26 06:24:45;;;;;;;39.03;16.65;;;;;;;;;;5053281;28;20238;-65
2021/11/26 06:27:13;;;;;;;34.08;15.60;;;;;;;;;;5052872;28;20238;-65
2021/11/26 06:29:40;;;;;;;39.55;17.40;;;;;;;;;;5053895;28;20194;-65
2021/11/26 06:32:08;;;;;;;35.55;15.25;;;;;;;;;;5053678;28;20190;-64
2021/11/26 06:34:36;;;;;;;35.95;17.45;;;;;;;;;;5054517;28;20191;-64
2021/11/26 06:37:04;;;;;;;33.35;17.42;;;;;;;;;;5053661;28;20609;-65
2021/11/26 06:39:33;;;;;;;30.17;14.68;;;;;;;;;;5053681;28;20187;-65
2021/11/26 06:42:01;;;;;;;33.97;15.80;;;;;;;;;;5053941;28;20688;-64
2021/11/26 06:44:28;;;;;;;32.15;16.10;;;;;;;;;;5053822;28;20198;-65
2021/11/26 06:46:56;;;;;;;34.03;16.35;;;;;;;;;;5053231;28;20324;-66
2021/11/26 06:49:24;;;;;;;29.20;15.10;;;;;;;;;;5053717;28;20542;-66
2021/11/26 06:51:52;;;;;;;32.38;15.60;;;;;;;;;;5053998;28;20272;-66
2021/11/26 06:54:21;;;;;;;33.65;15.32;;;;;;;;;;5053175;28;20714;-65
2021/11/26 06:56:50;;;;;;;33.53;16.20;;;;;;;;;;5054051;28;20195;-65
2021/11/26 06:59:21;;;;;;;26.30;16.20;;;;;;;;;;5053237;28;20190;-66
2021/11/26 07:01:50;;;;;;;28.83;14.38;;;;;;;;;;5053135;28;20183;-68
2021/11/26 07:04:22;;;;;;;31.27;14.50;;;;;;;;;;5052585;28;20290;-65
2021/11/26 07:06:53;;;;;;;38.85;16.77;;;;;;;;;;5053754;28;20214;-65
2021/11/26 07:09:21;;;;;;;27.05;15.38;;;;;;;;;;5053057;28;20198;-65
2021/11/26 07:11:48;;;;;;;28.33;16.40;;;;;;;;;;5053418;28;20191;-65
2021/11/26 07:14:17;;;;;;;35.30;17.27;;;;;;;;;;5052643;28;20280;-66
2021/11/26 07:16:45;;;;;;;33.25;17.13;;;;;;;;;;5053154;28;20219;-65
2021/11/26 07:19:16;;;;;;;27.80;14.07;;;;;;;;;;5053340;28;20646;-65
2021/11/26 07:21:44;;;;;;;31.42;16.60;;;;;;;;;;5033262;28;20231;-65
2021/11/26 07:24:12;;;;;;;32.75;16.30;;;;;;;;;;5033370;28;20191;-65
2021/11/26 07:26:44;;;;;;;31.00;16.70;;;;;;;;;;5052321;28;20211;-65
2021/11/26 07:29:11;;;;;;;27.85;16.42;;;;;;;;;;5053177;28;20199;-65
2021/11/26 07:31:41;;;;;;;33.28;15.52;;;;;;;;;;5052194;28;20183;-65
2021/11/26 07:34:15;;;;;;;29.58;16.02;;;;;;;;;;5052933;28;20260;-65
2021/11/26 07:36:43;;;;;;;31.98;15.43;;;;;;;;;;5052212;28;20190;-66
2021/11/26 07:39:16;;;;;;;33.13;15.30;;;;;;;;;;5047578;28;20190;-66
2021/11/26 07:41:44;;;;;;;35.67;14.00;;;;;;;;;;5051228;28;20571;-65
2021/11/26 07:44:20;;;;;;;28.08;14.18;;;;;;;;;;5052249;28;20195;-65
2021/11/26 07:46:49;;;;;;;33.38;16.27;;;;;;;;;;5052204;28;20216;-65
2021/11/26 07:49:16;;;;;;;27.40;13.60;;;;;;;;;;5052895;28;20199;-65
2021/11/26 07:51:44;;;;;;;25.33;13.30;;;;;;;;;;5052842;28;20237;-65
2021/11/26 07:54:18;;;;;;;30.55;15.95;;;;;;;;;;5050377;28;20480;-67
2021/11/26 07:56:45;;;;;;;33.67;15.85;;;;;;;;;;5050748;28;20670;-66
2021/11/26 07:59:23;;;;;;;33.67;15.43;;;;;;;;;;5051832;28;20198;-65
2021/11/26 08:01:52;;;;;;;31.92;14.77;;;21.40;36.20;;;;;;5052281;28;20193;-65
2021/11/26 08:04:19;;;;;;;29.60;14.00;;;3.10;85.20;;;;;;5051283;28;20274;-65
2021/11/26 08:06:47;;;;;;;34.55;14.18;;;;;;;;;;5052209;28;20584;-65
2021/11/26 08:09:15;;;;;;;30.23;14.32;;;;;;;;;;5049119;28;20215;-65
2021/11/26 08:11:43;;;;;;;30.58;16.17;;;;;;;;;;5052599;28;20194;-65
2021/11/26 08:14:10;;;;;;;28.63;14.63;;;;;;;;;;5052180;28;20218;-65
2021/11/26 08:16:38;;;;;;;32.08;14.70;;;;;;;;;;5052515;28;20245;-65
2021/11/26 08:19:07;;;;;;;34.95;15.00;;;;;;;;;;5052789;28;20638;-66
2021/11/26 08:21:35;;;;;;;25.10;13.63;;;;;;;;;;5051585;28;20191;-66
2021/11/26 08:24:02;;;;;;;30.95;15.10;;;;;;;;;;5052489;28;20296;-65
2021/11/26 08:26:30;;;;;;;29.00;15.38;;;;;;;;;;5052687;28;20303;-66
2021/11/26 08:28:57;;;;;;;35.40;15.70;;;;;;;;;;5052556;28;20240;-66
2021/11/26 08:31:25;;;;;;;37.83;16.85;;;;;;;;;;5050355;28;20717;-65
2021/11/26 08:33:53;;;;;;;25.48;15.23;;;;;;;;;;5052497;28;20191;-65
2021/11/26 08:36:23;;;;;;;28.83;14.20;;;;;;;;;;5051947;28;20356;-65
2021/11/26 08:38:50;;;;;;;34.08;15.68;;;;;;;;;;5051852;28;21064;-65
2021/11/26 08:41:18;;;;;;;29.50;13.52;;;;;;;;;;5051870;28;20723;-65
2021/11/26 08:43:45;;;;;;;31.33;16.35;;;;;;;;;;5051565;28;20226;-65
2021/11/26 08:46:13;;;;;;;27.27;15.57;;;;;;;;;;5052184;28;20222;-65
2021/11/26 08:48:40;;;;;;;32.70;17.10;;;;;;;;;;5051913;28;20280;-66
2021/11/26 08:51:08;;;;;;;31.00;16.38;;;;;;;;;;5052263;28;20226;-65
2021/11/26 08:53:39;;;;;;;28.60;16.23;;;;;;;;;;5052191;28;20234;-66
2021/11/26 08:56:07;;;;;;;32.72;15.82;;;;;;;;;;5052086;28;20195;-65
2021/11/26 08:58:36;;;;;;;32.63;18.08;;;;;;;;;;5051709;28;20249;-66
2021/11/26 09:01:07;;;;;;;28.35;15.55;;;;;;;;;;5051984;28;20217;-66
2021/11/26 09:03:35;;;;;;;28.23;13.48;;;;;;;;;;5052291;28;20241;-66
2021/11/26 09:06:03;;;;;;;27.27;15.10;;;;;;;;;;5051791;28;20225;-65
2021/11/26 09:08:30;;;;;;;28.92;15.10;;;;;;;;;;5052098;28;20446;-65
2021/11/26 09:10:59;;;;;;;33.72;15.98;;;;;;;;;;5055226;28;20191;-66
2021/11/26 09:13:27;;;;;;;28.85;14.23;;;;;;;;;;5055972;28;20593;-66
2021/11/26 09:15:56;;;;;;;31.92;14.70;;;;;;;;;;5056069;28;20632;-65
2021/11/26 09:18:25;;;;;;;29.73;15.50;;;;;;;;;;5056259;28;20237;-65
2021/11/26 09:20:58;;;;;;;33.42;17.45;;;;;;;;;;5056134;28;20612;-65
2021/11/26 09:23:31;;;;;;;32.33;16.00;;;;;;;;;;5055837;28;20201;-66
2021/11/26 09:26:00;;;;;;;34.75;16.10;;;;;;;;;;5055954;28;20259;-66
2021/11/26 09:28:27;;;;;;;30.52;14.90;;;;;;;;;;5056197;28;20210;-66
2021/11/26 09:30:57;;;;;;;30.58;15.13;;;;;;;;;;5056212;28;20213;-65
2021/11/26 09:33:25;;;;;;;28.65;15.25;;;;;;;;;;5056132;28;20650;-65
2021/11/26 09:35:52;;;;;;;29.75;16.05;;;;;;;;;;5055720;28;20190;-65
2021/11/26 09:38:20;;;;;;;35.08;14.68;;;;;;;;;;5055552;28;20231;-66
2021/11/26 09:40:48;;;;;;;30.85;15.18;;;;;;;;;;5055875;28;20190;-65
2021/11/26 09:43:17;;;;;;;34.35;14.88;;;;;;;;;;5055903;28;20248;-66
2021/11/26 09:45:44;;;;;;;36.90;18.00;;;;;;;;;;5055665;28;20272;-66
2021/11/26 09:48:13;;;;;;;33.17;16.50;;;;;;;;;;5055202;28;20194;-66
2021/11/26 09:50:41;;;;;;;30.20;16.60;;;;;;;;;;5055693;28;20237;-65
2021/11/26 09:53:14;;;;;;;30.38;15.30;;;;;;;;;;5054997;28;20320;-66
2021/11/26 09:55:44;;;;;;;30.88;15.80;;;;;;;;;;5055573;28;20199;-65
2021/11/26 09:58:12;;;;;;;30.77;16.05;;;;;;;;;;5055415;28;20195;-66
2021/11/26 10:00:41;;;;;;;33.67;16.20;;;;;;;;;;5055521;28;20704;-65
2021/11/26 10:03:11;;;;;;;31.23;16.27;;;;;;;;;;5055248;28;20274;-65
2021/11/26 10:05:39;;;;;;;32.60;16.02;;;;;;;;;;5055317;28;20244;-65
2021/11/26 10:08:07;;;;;;;31.85;16.10;;;;;;;;;;5055240;28;20222;-65
2021/11/26 10:10:42;;;;;;;29.30;15.63;;;;;;;;;;5054879;28;20240;-66
2021/11/26 10:13:10;;;;;;;33.95;15.63;;;;;;;;;;5055459;28;20536;-65
2021/11/26 10:15:40;;;;;;;28.88;15.43;;;;;;;;;;5055221;28;20258;-65
2021/11/26 10:18:11;;;;;;;27.25;14.48;;;;;;;;;;5055238;28;20195;-66
2021/11/26 10:20:52;;;;;;;26.90;15.15;;;;;;;;;;5054523;28;20191;-66
2021/11/26 10:23:22;;;;;;;26.60;13.70;;;;;;;;;;5054959;28;20221;-66
2021/11/26 10:25:49;;;;;;;22.38;13.10;;;;;;;;;;5055014;28;20218;-66
2021/11/26 10:28:17;;;;;;;27.92;14.60;;;;;;;;;;5055105;28;20195;-65
2021/11/26 10:30:45;;;;;;;23.10;12.13;;;;;;;;;;5054559;28;20700;-66
2021/11/26 10:33:16;;;;;;;26.08;13.93;;;;;;;;;;5054894;28;20236;-66
2021/11/26 10:35:44;;;;;;;25.05;14.32;;;;;;;;;;5054923;28;20681;-65
2021/11/26 10:38:12;;;;;;;27.20;14.40;;;;;;;;;;5054772;28;20604;-65
2021/11/26 10:40:42;;;;;;;27.20;14.32;;;;;;;;;;5054480;28;20333;-66
2021/11/26 10:43:14;;;;;;;26.90;13.55;;;;;;;;;;5054469;28;20240;-66
2021/11/26 10:48:50;;;;;;;25.33;13.73;;;;;;;;;;5052407;28;20209;-66
2021/11/26 11:00:03;;;;;;;29.15;15.93;;;;;;;;;;5054552;28;20641;-66
2021/11/26 11:02:31;;;;;;;28.73;14.10;;;;;;;;;;5054498;28;20237;-67
2021/11/26 11:04:59;;;;;;;31.13;15.07;;;;;;;;;;5054526;28;20191;-66
2021/11/26 11:07:27;;;;;;;26.05;13.73;;;;;;;;;;5053864;28;20313;-66
2021/11/26 11:09:58;;;;;;;25.08;13.88;;;;;;;;;;5054184;28;20230;-68
2021/11/26 11:12:30;;;;;;;24.55;12.32;;;;;;;;;;5054246;28;20237;-66
2021/11/26 11:14:58;;;;;;;29.35;15.18;;;;;;;;;;5053933;28;20317;-66
2021/11/26 11:17:28;;;;;;;21.92;12.50;;;;;;;;;;5053962;28;20294;-67
2021/11/26 11:19:57;;;;;;;27.48;13.48;;;;;;;;;;5054252;28;20253;-65
2021/11/26 11:22:26;;;;;;;22.80;13.10;;;;;;;;;;5054182;28;20201;-66
2021/11/26 11:24:53;;;;;;;25.95;13.65;;;;;;;;;;5053790;28;20227;-66
2021/11/26 11:27:21;;;;;;;32.20;18.65;;;;;;;;;;5053712;28;20230;-66
2021/11/26 11:29:48;;;;;;;26.13;14.00;;;;;;;;;;5053184;28;20195;-65
2021/11/26 11:32:16;;;;;;;26.17;13.43;;;;;;;;;;5053135;28;20194;-66
2021/11/26 11:34:47;;;;;;;21.33;11.70;;;;;;;;;;5053624;28;20218;-65
2021/11/26 11:37:18;;;;;;;20.02;11.82;;;;;;;;;;5053204;28;20245;-66
2021/11/26 11:39:50;;;;;;;19.17;10.52;;;;;;;;;;5053497;28;20191;-66
2021/11/26 11:42:25;;;;;;;19.95;11.68;;;;;;;;;;5053373;28;20198;-65
2021/11/26 11:45:03;;;;;;;22.38;11.70;;;;;;;;;;5053489;28;20272;-66
2021/11/26 11:47:30;;;;;;;21.30;11.60;;;;;;;;;;5053470;28;20305;-66
2021/11/26 11:50:05;;;;;;;20.25;13.40;;;;;;;;;;5053422;28;20237;-67
2021/11/26 11:52:39;;;;;;;21.55;11.60;;;;;;;;;;5053134;28;20195;-66
2021/11/26 11:55:17;;;;;;;19.42;11.95;;;;;;;;;;5052986;28;20194;-66
2021/11/26 11:57:47;;;;;;;19.17;10.27;;;;;;;;;;5053104;28;20190;-66
2021/11/26 12:00:19;;;;;;;20.85;11.43;;;;;;;;;;5053150;28;20604;-66
2021/11/26 12:02:47;;;;;;;20.08;11.98;;;;;;;;;;5052827;28;20289;-65
2021/11/26 12:05:21;;;;;;;18.40;11.73;;;;;;;;;;5053082;28;20247;-66
2021/11/26 12:07:49;;;;;;;19.77;10.75;;;;;;;;;;5052852;28;20623;-66
2021/11/26 12:10:18;;;;;;;20.13;12.00;;;;;;;;;;5053198;28;20226;-67
2021/11/26 12:12:46;;;;;;;21.27;11.15;;;;;;;;;;5053145;28;20290;-65
2021/11/26 12:15:23;;;;;;;20.27;12.27;;;;;;;;;;5052932;28;20219;-64
2021/11/26 12:17:56;;;;;;;20.50;10.63;;;;;;;;;;5050067;28;20201;-65
2021/11/26 12:20:27;;;;;;;18.48;11.77;;;;;;;;;;5052109;28;20235;-65
2021/11/26 12:22:59;;;;;;;19.50;10.05;;;;;;;;;;5051754;28;20222;-64
2021/11/26 12:25:35;;;;;;;18.73;10.90;;;;;;;;;;5052296;28;20191;-68
2021/11/26 12:28:05;;;;;;;18.08;10.98;;;;;;;;;;5052540;28;20685;-66
2021/11/26 12:30:33;;;;;;;19.17;10.98;;;;;;;;;;5051683;28;20264;-65
2021/11/26 12:33:00;;;;;;;20.80;10.50;;;;;;;;;;5052583;28;20195;-66
2021/11/26 12:35:29;;;;;;;17.70;10.88;;;;;;;;;;5051937;28;20227;-68
2021/11/26 12:38:00;;;;;;;17.63;9.75;;;;;;;;;;5052582;28;20190;-66
2021/11/26 12:40:29;;;;;;;18.98;11.15;;;;;;;;;;5051497;28;20236;-66
2021/11/26 12:43:01;;;;;;;18.80;10.32;;;;;;;;;;5052370;28;20256;-66
2021/11/26 12:45:34;;;;;;;20.52;10.00;;;;;;;;;;5054839;28;20249;-66
2021/11/26 12:48:07;;;;;;;17.60;9.20;;;;;;;;;;5056147;28;20219;-66
2021/11/26 12:53:21;;;;;;;14.98;9.30;;;;;;;;;;5056762;28;20194;-65
2021/11/26 12:55:54;;;;;;;16.10;10.07;;;;;;;;;;5055962;28;20237;-65
2021/11/26 12:58:21;;;;;;;17.55;10.18;;;;;;;;;;5055515;28;20195;-66
2021/11/26 13:00:56;;;;;;;19.13;12.13;;;;;;;;;;5055781;28;20190;-66
2021/11/26 13:03:24;;;;;;;16.85;9.60;;;;;;;;;;5055737;28;20186;-65
2021/11/26 13:05:52;;;;;;;17.38;9.90;;;;;;;;;;5055011;28;20218;-65
2021/11/26 13:08:20;;;;;;;16.45;10.30;;;;;;;;;;5055516;28;20219;-65
2021/11/26 13:10:48;;;;;;;16.52;10.10;;;;;;;;;;5055294;28;20240;-65
2021/11/26 13:13:17;;;;;;;18.25;9.95;;;;;;;;;;5053973;28;20237;-66
2021/11/26 13:15:45;;;;;;;19.65;10.05;;;;;;;;;;5053868;28;20668;-66
2021/11/26 13:18:17;;;;;;;20.67;10.75;;;;;;;;;;5054602;28;20180;-65
2021/11/26 13:20:45;;;;;;;18.40;11.63;;;;;;;;;;5054772;28;20218;-65
2021/11/26 13:23:14;;;;;;;17.48;9.13;;;;;;;;;;5055544;28;20236;-65
2021/11/26 13:25:44;;;;;;;18.08;10.82;;;;;;;;;;5056046;28;20698;-65
2021/11/26 13:28:14;;;;;;;15.82;9.32;;;;;;;;;;5055943;28;20262;-65
2021/11/26 13:30:44;;;;;;;20.65;10.40;;;;;;;;;;5055697;28;20286;-65
2021/11/26 13:33:12;;;;;;;15.57;10.57;;;;;;;;;;5056234;28;20237;-66
2021/11/26 13:35:41;;;;;;;15.60;10.00;;;;;;;;;;5055652;28;20245;-65
2021/11/26 13:38:19;;;;;;;17.45;9.05;;;;;;;;;;5056009;28;20607;-65
2021/11/26 13:40:47;;;;;;;18.73;10.15;;;;;;;;;;5055520;28;20281;-65
2021/11/26 13:43:23;;;;;;;17.17;10.00;;;;;;;;;;5055657;28;20642;-65
2021/11/26 13:45:52;;;;;;;15.35;9.93;;;;;;;;;;5055795;28;20190;-65
2021/11/26 13:48:19;;;;;;;17.45;8.95;;;;;;;;;;5055720;28;20261;-66
2021/11/26 13:50:46;;;;;;;15.02;9.15;;;;;;;;;;5055770;28;20190;-64
2021/11/26 13:53:14;;;;;;;16.15;10.48;;;;;;;;;;5055672;28;20190;-65
2021/11/26 13:55:41;;;;;;;16.08;9.60;;;;;;;;;;5055449;28;20195;-65
2021/11/26 13:58:10;;;;;;;13.32;8.38;;;;;;;;;;5055596;28;20241;-63
2021/11/26 14:00:41;;;;;;;14.85;8.27;;;;;;;;;;5055638;28;20195;-65
2021/11/26 14:03:09;;;;;;;16.08;10.25;;;;;;;;;;5055593;28;20187;-65
2021/11/26 14:05:38;;;;;;;16.15;10.15;;;;;;;;;;5055862;28;20191;-65
2021/11/26 14:08:07;;;;;;;21.38;9.95;;;;;;;;;;5055509;28;20561;-65
2021/11/26 14:10:35;;;;;;;18.80;10.50;;;;;;;;;;5055353;28;20227;-65
2021/11/26 14:13:03;;;;;;;16.05;9.50;;;;;;;;;;5055292;28;20278;-65
2021/11/26 14:15:33;;;;;;;21.45;10.43;;;;;;;;;;5055012;28;20238;-65
2021/11/26 14:18:11;;;;;;;19.42;10.80;;;;;;;;;;5055399;28;20191;-65
2021/11/26 14:20:39;;;;;;;13.95;8.65;;;;;;;;;;5055169;28;20187;-65
2021/11/26 14:23:10;;;;;;;17.08;10.52;;;;;;;;;;5055002;28;20201;-66
2021/11/26 14:25:39;;;;;;;17.35;10.38;;;;;;;;;;5054925;28;20183;-65
2021/11/26 14:28:15;;;;;;;18.75;9.95;;;;;;;;;;5054989;28;20214;-65
2021/11/26 14:30:43;;;;;;;20.05;9.68;;;;;;;;;;5054764;28;20264;-65
2021/11/26 14:33:14;;;;;;;21.00;11.95;;;;;;;;;;5054494;28;20230;-65
2021/11/26 14:35:43;;;;;;;19.70;11.27;;;;;;;;;;5055033;28;20191;-65
2021/11/26 14:38:11;;;;;;;14.35;9.85;;;;;;;;;;5054770;28;20237;-65
2021/11/26 14:40:39;;;;;;;18.40;10.73;;;;;;;;;;5054744;28;20584;-65
2021/11/26 14:43:10;;;;;;;18.27;10.70;;;;;;;;;;5054780;28;20198;-65